createdAt,value
2023-02-06T00:04:47.683Z,73.31
2023-02-06T00:09:52.127Z,72.66
2023-02-06T00:14:55.991Z,73.40
2023-02-06T00:19:59.724Z,72.99
2023-02-06T00:25:06.189Z,72.82
2023-02-06T00:30:10.398Z,73.05
2023-02-06T00:35:14.840Z,72.83
2023-02-06T00:40:20.506Z,73.40
2023-02-06T00:45:24.445Z,72.90
2023-02-06T00:50:28.384Z,72.96
2023-02-06T00:55:32.142Z,73.67
2023-02-06T01:00:36.561Z,72.77
2023-02-06T01:05:40.570Z,72.72
2023-02-06T01:10:45.609Z,73.09
2023-02-06T01:15:51.017Z,72.85
2023-02-06T01:20:56.318Z,73.29
2023-02-06T01:26:00.118Z,73.29
2023-02-06T01:31:24.316Z,73.44
2023-02-06T01:36:29.174Z,73.22
2023-02-06T01:41:34.315Z,72.53
2023-02-06T01:46:39.850Z,72.49
2023-02-06T01:51:44.139Z,72.87
2023-02-06T01:57:02.225Z,72.97
2023-02-06T02:02:06.171Z,73.03
2023-02-06T02:07:33.364Z,72.89
2023-02-06T02:12:37.325Z,72.54
2023-02-06T02:18:32.640Z,72.76
2023-02-06T02:23:55.271Z,72.52
2023-02-06T02:29:29.503Z,72.68
2023-02-06T02:34:33.221Z,73.20
2023-02-06T02:40:06.132Z,72.60
2023-02-06T02:45:22.022Z,72.97
2023-02-06T02:50:27.313Z,73.24
2023-02-06T02:55:31.576Z,72.82
2023-02-06T03:00:44.294Z,73.19
2023-02-06T03:06:15.648Z,73.48
2023-02-06T03:11:21.976Z,73.29
2023-02-06T03:16:40.061Z,73.15
2023-02-06T03:21:46.332Z,73.32
2023-02-06T03:26:56.617Z,73.21
2023-02-06T03:32:09.327Z,73.22
2023-02-06T03:37:13.993Z,72.81
2023-02-06T03:42:18.551Z,72.79
2023-02-06T03:47:25.098Z,72.52
2023-02-06T03:52:37.586Z,72.54
2023-02-06T03:57:45.560Z,73.12
2023-02-06T04:02:51.011Z,72.19
2023-02-06T04:07:57.219Z,72.41
2023-02-06T04:13:00.967Z,72.44
2023-02-06T04:18:06.132Z,72.39
2023-02-06T04:23:10.478Z,72.15
2023-02-06T04:28:14.808Z,72.18
2023-02-06T04:33:18.991Z,72.62
2023-02-06T04:38:22.911Z,72.12
2023-02-06T04:43:26.824Z,72.66
2023-02-06T04:48:30.638Z,72.06
2023-02-06T04:53:34.744Z,72.70
2023-02-06T04:58:40.099Z,72.60
2023-02-06T05:03:44.142Z,72.28
2023-02-06T05:08:48.072Z,72.45
2023-02-06T05:13:51.982Z,72.24
2023-02-06T05:18:57.600Z,72.17
2023-02-06T05:24:01.540Z,72.65
2023-02-06T05:29:05.359Z,72.32
2023-02-06T05:34:11.109Z,72.35
2023-02-06T05:39:15.442Z,72.51
2023-02-06T05:44:20.056Z,72.30
2023-02-06T05:49:23.966Z,72.42
2023-02-06T05:54:27.918Z,72.50
2023-02-06T05:59:31.694Z,72.83
2023-02-06T06:04:35.588Z,72.43
2023-02-06T06:09:39.521Z,72.33
2023-02-06T06:14:43.288Z,72.42
2023-02-06T06:19:47.414Z,72.01
2023-02-06T06:24:51.253Z,72.48
2023-02-06T06:29:55.121Z,72.47
2023-02-06T06:34:59.781Z,72.58
2023-02-06T06:40:03.579Z,72.47
2023-02-06T06:45:08.293Z,72.52
2023-02-06T06:50:12.100Z,72.63
2023-02-06T06:55:16.157Z,72.66
2023-02-06T07:00:20.184Z,72.37
2023-02-06T07:05:25.189Z,72.11
2023-02-06T07:10:29.826Z,72.08
2023-02-06T07:15:33.889Z,72.40
2023-02-06T07:20:39.135Z,72.12
2023-02-06T07:25:43.162Z,72.36
2023-02-06T07:30:47.158Z,72.15
2023-02-06T07:35:50.866Z,71.93
2023-02-06T07:40:54.938Z,72.26
2023-02-06T07:46:03.653Z,72.06
2023-02-06T07:51:09.704Z,72.06
2023-02-06T07:56:19.571Z,71.76
2023-02-06T08:01:24.564Z,71.69
2023-02-06T08:06:29.130Z,71.92
2023-02-06T08:11:33.269Z,71.77
2023-02-06T08:16:37.525Z,71.70
2023-02-06T08:21:42.586Z,71.44
2023-02-06T08:26:46.762Z,71.43
2023-02-06T08:31:50.538Z,71.34
2023-02-06T08:36:54.546Z,71.28
2023-02-06T08:41:58.553Z,71.18
2023-02-06T08:47:10.065Z,70.97
2023-02-06T08:52:14.460Z,71.24
2023-02-06T08:57:18.325Z,70.86
2023-02-06T09:02:22.054Z,70.89
2023-02-06T09:07:26.895Z,70.83
2023-02-06T09:12:30.656Z,70.53
2023-02-06T09:17:34.815Z,70.88
2023-02-06T09:22:39.709Z,70.65
2023-02-06T09:27:47.460Z,70.51
2023-02-06T09:32:51.205Z,70.18
2023-02-06T09:37:55.037Z,70.11
2023-02-06T09:42:59.305Z,70.36
2023-02-06T09:48:29.213Z,70.04
2023-02-06T09:54:15.521Z,70.04
2023-02-06T09:59:35.883Z,70.12
2023-02-06T10:04:49.980Z,70.02
2023-02-06T10:10:02.976Z,70.14
2023-02-06T10:15:16.266Z,69.95
2023-02-06T10:20:31.241Z,69.82
2023-02-06T10:25:40.624Z,69.73
2023-02-06T10:30:56.643Z,69.91
2023-02-06T10:36:09.357Z,69.69
2023-02-06T10:41:27.456Z,70.09
2023-02-06T10:46:33.947Z,70.11
2023-02-06T10:51:44.107Z,70.00
2023-02-06T10:56:50.719Z,70.06
2023-02-06T11:02:14.727Z,69.60
2023-02-06T11:07:31.934Z,69.65
2023-02-06T11:12:40.832Z,69.57
2023-02-06T11:17:46.043Z,69.62
2023-02-06T11:22:53.494Z,69.67
2023-02-06T11:27:59.937Z,69.77
2023-02-06T11:33:08.384Z,69.97
2023-02-06T11:38:20.314Z,69.71
2023-02-06T11:43:27.100Z,69.89
2023-02-06T11:48:34.575Z,70.33
2023-02-06T11:53:39.693Z,70.81
2023-02-06T12:05:43.708Z,70.58
2023-02-06T12:10:59.549Z,70.47
2023-02-06T12:16:07.406Z,70.48
2023-02-06T12:21:51.806Z,70.95
2023-02-06T12:27:00.004Z,70.60
2023-02-06T12:32:24.362Z,70.89
2023-02-06T12:37:49.264Z,70.89
2023-02-06T12:43:09.358Z,70.96
2023-02-06T12:48:24.403Z,71.21
2023-02-06T12:53:40.556Z,71.09
2023-02-06T12:58:44.330Z,71.33
2023-02-06T13:03:58.085Z,71.32
2023-02-06T13:09:06.333Z,71.39
2023-02-06T13:14:30.214Z,71.21
2023-02-06T13:19:40.436Z,71.29
2023-02-06T13:24:46.844Z,71.84
2023-02-06T13:29:54.410Z,71.72
2023-02-06T13:35:15.329Z,71.45
2023-02-06T13:40:25.350Z,71.24
2023-02-06T13:45:43.744Z,71.53
2023-02-06T13:50:50.728Z,71.57
2023-02-06T13:56:08.978Z,71.54
2023-02-06T14:01:27.064Z,71.78
2023-02-06T14:06:42.327Z,71.66
2023-02-06T14:12:34.765Z,71.76
2023-02-06T14:17:54.507Z,72.00
2023-02-06T14:23:18.304Z,72.24
2023-02-06T14:28:51.573Z,72.03
2023-02-06T14:34:04.442Z,72.54
2023-02-06T14:39:40.526Z,71.87
2023-02-06T14:44:47.698Z,72.58
2023-02-06T14:49:52.543Z,72.22
2023-02-06T14:54:56.846Z,72.59
2023-02-06T15:00:19.483Z,72.60
2023-02-06T15:05:29.362Z,72.60
2023-02-06T15:10:38.634Z,72.59
2023-02-06T15:15:55.498Z,73.19
2023-02-06T15:21:04.104Z,72.63
2023-02-06T15:26:28.311Z,73.06
2023-02-06T15:31:33.047Z,72.91
2023-02-06T15:36:40.741Z,73.10
2023-02-06T15:41:49.382Z,72.92
2023-02-06T15:46:56.968Z,72.96
2023-02-06T15:52:02.808Z,72.85
2023-02-06T15:57:21.123Z,72.92
2023-02-06T16:02:35.615Z,72.80
2023-02-06T16:07:39.630Z,73.59
2023-02-06T16:12:44.410Z,73.11
2023-02-06T16:17:48.635Z,73.67
2023-02-06T16:22:57.701Z,73.83
2023-02-06T16:28:01.773Z,73.12
2023-02-06T16:33:33.175Z,72.47
2023-02-06T16:38:37.867Z,73.21
2023-02-06T16:43:42.297Z,73.24
2023-02-06T16:48:46.153Z,73.21
2023-02-06T16:53:50.688Z,73.72
2023-02-06T16:58:54.499Z,73.55
2023-02-06T17:03:58.352Z,73.85
2023-02-06T17:09:07.508Z,73.27
2023-02-06T17:14:12.343Z,73.16
2023-02-06T17:19:16.516Z,73.11
2023-02-06T17:24:22.143Z,73.29
2023-02-06T17:29:25.964Z,74.22
2023-02-06T17:34:31.015Z,73.78
2023-02-06T17:39:36.128Z,73.30
2023-02-06T17:44:42.480Z,73.11
2023-02-06T17:49:47.714Z,73.32
2023-02-06T17:54:51.712Z,73.56
2023-02-06T17:59:55.580Z,73.35
2023-02-06T18:05:00.845Z,73.59
2023-02-06T18:10:07.741Z,73.73
2023-02-06T18:15:14.321Z,73.75
2023-02-06T18:20:18.649Z,73.00
2023-02-06T18:25:22.396Z,73.47
2023-02-06T18:30:26.516Z,73.76
2023-02-06T18:35:30.518Z,73.46
2023-02-06T18:40:34.539Z,73.79
2023-02-06T18:45:40.376Z,73.04
2023-02-06T18:50:44.176Z,73.61
2023-02-06T18:55:59.483Z,73.64
2023-02-06T19:01:03.340Z,73.39
2023-02-06T19:06:19.636Z,72.93
2023-02-06T19:11:23.344Z,73.06
2023-02-06T19:16:29.879Z,72.88
2023-02-06T19:21:34.135Z,73.18
2023-02-06T19:26:39.600Z,73.44
2023-02-06T19:31:43.339Z,73.36
2023-02-06T19:36:48.140Z,73.24
2023-02-06T19:41:51.949Z,73.20
2023-02-06T19:46:56.585Z,73.30
2023-02-06T19:52:02.057Z,73.74
2023-02-06T19:57:05.836Z,73.34
2023-02-06T20:02:14.105Z,72.81
2023-02-06T20:07:17.998Z,73.99
2023-02-06T20:12:21.671Z,74.09
2023-02-06T20:17:27.945Z,73.71
2023-02-06T20:22:31.924Z,72.96
2023-02-06T20:27:35.875Z,73.54
2023-02-06T20:32:39.740Z,73.15
2023-02-06T20:37:43.475Z,72.84
2023-02-06T20:42:47.556Z,72.76
2023-02-06T20:47:51.289Z,73.24
2023-02-06T20:52:55.126Z,73.45
2023-02-06T20:57:59.118Z,74.03
2023-02-06T21:03:02.931Z,73.20
2023-02-06T21:08:06.812Z,73.49
2023-02-06T21:13:10.641Z,73.76
2023-02-06T21:18:14.277Z,73.31
2023-02-06T21:23:19.774Z,73.20
2023-02-06T21:28:23.731Z,73.35
2023-02-06T21:33:27.919Z,73.77
2023-02-06T21:38:31.545Z,72.92
2023-02-06T21:43:35.985Z,73.23
2023-02-06T21:48:41.344Z,72.88
2023-02-06T21:53:46.350Z,72.91
2023-02-06T21:58:50.788Z,72.89
2023-02-06T22:03:55.471Z,73.00
2023-02-06T22:09:05.886Z,72.68
2023-02-06T22:14:17.215Z,73.27
2023-02-06T22:19:21.842Z,73.02
2023-02-06T22:24:25.747Z,72.72
2023-02-06T22:29:30.861Z,73.31
2023-02-06T22:34:34.679Z,72.62
2023-02-06T22:39:40.068Z,73.19
2023-02-06T22:44:43.819Z,72.87
2023-02-06T22:49:47.708Z,72.80
2023-02-06T22:54:51.483Z,73.05
2023-02-06T22:59:56.324Z,73.05
2023-02-06T23:05:00.215Z,73.29
2023-02-06T23:10:04.618Z,72.92
2023-02-06T23:15:08.900Z,72.77
2023-02-06T23:20:13.038Z,72.24
2023-02-06T23:25:18.375Z,72.40
2023-02-06T23:30:22.529Z,72.63
2023-02-06T23:35:28.020Z,72.55
2023-02-06T23:40:32.144Z,72.70
2023-02-06T23:45:36.470Z,73.08
2023-02-06T23:50:40.780Z,72.52
2023-02-06T23:55:44.675Z,72.51
